createdAt,value
2023-09-28T00:01:31.394Z,15.25
2023-09-28T00:03:58.231Z,15.24
2023-09-28T00:06:25.200Z,15.22
2023-09-28T00:08:55.854Z,15.19
2023-09-28T00:11:22.297Z,15.13
2023-09-28T00:13:48.929Z,15.09
2023-09-28T00:16:15.649Z,15.07
2023-09-28T00:18:42.127Z,15.05
2023-09-28T00:21:08.624Z,14.95
2023-09-28T00:23:35.272Z,14.93
2023-09-28T00:26:01.789Z,14.90
2023-09-28T00:28:28.464Z,14.87
2023-09-28T00:30:55.091Z,14.79
2023-09-28T00:33:21.697Z,14.75
2023-09-28T00:35:48.512Z,14.67
2023-09-28T00:38:14.979Z,14.57
2023-09-28T00:40:41.957Z,14.49
2023-09-28T00:43:08.585Z,14.48
2023-09-28T00:45:35.380Z,14.45
2023-09-28T00:48:03.952Z,14.42
2023-09-28T00:50:31.331Z,14.41
2023-09-28T00:53:03.988Z,14.39
2023-09-28T00:55:31.249Z,14.37
2023-09-28T00:58:00.651Z,14.35
2023-09-28T01:00:28.059Z,14.34
2023-09-28T01:02:56.278Z,14.32
2023-09-28T01:05:28.139Z,14.26
2023-09-28T01:07:55.016Z,14.22
2023-09-28T01:10:21.316Z,14.17
2023-09-28T01:12:47.881Z,14.12
2023-09-28T01:15:14.696Z,14.11
2023-09-28T01:17:42.154Z,14.07
2023-09-28T01:20:09.610Z,14.07
2023-09-28T01:22:36.324Z,14.03
2023-09-28T01:25:04.725Z,14.04
2023-09-28T01:27:31.507Z,14.02
2023-09-28T01:29:58.175Z,14.02
2023-09-28T01:32:24.666Z,13.99
2023-09-28T01:34:51.469Z,13.99
2023-09-28T01:37:22.621Z,13.98
2023-09-28T01:39:49.500Z,13.96
2023-09-28T01:42:15.925Z,13.95
2023-09-28T01:44:43.227Z,13.91
2023-09-28T01:47:09.984Z,13.92
2023-09-28T01:49:36.525Z,13.88
2023-09-28T01:52:03.105Z,13.83
2023-09-28T01:54:29.589Z,13.86
2023-09-28T01:56:56.216Z,13.81
2023-09-28T01:59:23.005Z,13.77
2023-09-28T02:01:49.626Z,13.72
2023-09-28T02:04:16.541Z,13.68
2023-09-28T02:06:43.311Z,13.63
2023-09-28T02:09:10.268Z,13.63
2023-09-28T02:11:36.957Z,13.57
2023-09-28T02:14:04.172Z,13.53
2023-09-28T02:16:30.841Z,13.50
2023-09-28T02:18:57.465Z,13.47
2023-09-28T02:21:24.284Z,13.46
2023-09-28T02:23:51.239Z,13.42
2023-09-28T02:26:17.724Z,13.39
2023-09-28T02:28:44.336Z,13.38
2023-09-28T02:31:11.121Z,13.35
2023-09-28T02:33:38.005Z,13.30
2023-09-28T02:36:24.951Z,13.30
2023-09-28T02:38:51.549Z,13.24
2023-09-28T02:41:19.683Z,13.23
2023-09-28T02:43:46.281Z,13.18
2023-09-28T02:46:13.842Z,13.16
2023-09-28T02:48:41.676Z,13.17
2023-09-28T02:51:08.311Z,13.15
2023-09-28T02:53:35.015Z,13.14
2023-09-28T02:56:02.354Z,13.13
2023-09-28T02:58:28.978Z,13.03
2023-09-28T03:00:55.908Z,13.01
2023-09-28T03:03:23.474Z,13.04
2023-09-28T03:05:50.007Z,13.00
2023-09-28T03:08:16.867Z,12.98
2023-09-28T03:10:43.926Z,12.99
2023-09-28T03:13:11.317Z,12.96
2023-09-28T03:15:39.182Z,12.93
2023-09-28T03:18:07.069Z,12.89
2023-09-28T03:20:33.777Z,12.88
2023-09-28T03:23:00.655Z,12.90
2023-09-28T03:25:27.266Z,12.90
2023-09-28T03:27:55.833Z,12.92
2023-09-28T03:30:24.416Z,12.88
2023-09-28T03:32:51.684Z,12.87
2023-09-28T03:35:20.389Z,12.86
2023-09-28T03:37:48.202Z,12.87
2023-09-28T03:40:18.306Z,12.87
2023-09-28T03:42:47.260Z,12.86
2023-09-28T03:45:16.257Z,12.90
2023-09-28T03:47:45.053Z,12.93
2023-09-28T03:50:13.454Z,12.91
2023-09-28T03:52:41.706Z,12.88
2023-09-28T03:55:13.349Z,12.82
2023-09-28T03:57:40.657Z,12.84
2023-09-28T04:00:08.301Z,12.83
2023-09-28T04:02:34.819Z,12.84
2023-09-28T04:05:01.496Z,12.87
2023-09-28T04:07:28.266Z,12.84
2023-09-28T04:09:54.718Z,12.81
2023-09-28T04:12:21.214Z,12.80
2023-09-28T04:14:47.673Z,12.80
2023-09-28T04:17:17.046Z,12.78
2023-09-28T04:19:43.868Z,12.81
2023-09-28T04:22:10.388Z,12.78
2023-09-28T04:24:37.097Z,12.75
2023-09-28T04:27:03.814Z,12.71
2023-09-28T04:29:30.321Z,12.71
2023-09-28T04:31:57.080Z,12.68
2023-09-28T04:34:23.539Z,12.67
2023-09-28T04:36:50.204Z,12.64
2023-09-28T04:39:19.309Z,12.61
2023-09-28T04:41:45.853Z,12.57
2023-09-28T04:44:12.350Z,12.56
2023-09-28T04:46:38.845Z,12.61
2023-09-28T04:49:05.365Z,12.60
2023-09-28T04:51:31.821Z,12.56
2023-09-28T04:53:58.312Z,12.52
2023-09-28T04:56:24.739Z,12.50
2023-09-28T04:58:51.245Z,12.54
2023-09-28T05:01:18.955Z,12.47
2023-09-28T05:03:45.532Z,12.46
2023-09-28T05:06:12.008Z,12.43
2023-09-28T05:08:38.935Z,12.43
2023-09-28T05:11:05.366Z,12.43
2023-09-28T05:13:32.044Z,12.43
2023-09-28T05:15:59.021Z,12.45
2023-09-28T05:18:25.390Z,12.45
2023-09-28T05:20:51.879Z,12.41
2023-09-28T05:23:18.448Z,12.46
2023-09-28T05:25:44.890Z,12.47
2023-09-28T05:28:16.693Z,12.50
2023-09-28T05:30:44.338Z,12.51
2023-09-28T05:33:11.167Z,12.53
2023-09-28T05:35:37.650Z,12.55
2023-09-28T05:38:04.572Z,12.59
2023-09-28T05:40:31.269Z,12.63
2023-09-28T05:42:57.725Z,12.65
2023-09-28T05:45:24.153Z,12.70
2023-09-28T05:47:50.606Z,12.76
2023-09-28T05:50:17.236Z,12.81
2023-09-28T05:52:43.702Z,12.84
2023-09-28T05:55:10.347Z,12.89
2023-09-28T05:57:36.788Z,12.98
2023-09-28T06:00:04.017Z,13.01
2023-09-28T06:02:30.594Z,13.05
2023-09-28T06:04:57.135Z,13.13
2023-09-28T06:07:23.627Z,13.17
2023-09-28T06:09:50.055Z,13.27
2023-09-28T06:12:16.491Z,13.33
2023-09-28T06:14:42.948Z,13.40
2023-09-28T06:17:09.420Z,13.46
2023-09-28T06:19:43.885Z,13.54
2023-09-28T06:22:22.301Z,13.60
2023-09-28T06:24:48.668Z,13.69
2023-09-28T06:27:15.062Z,13.74
2023-09-28T06:29:43.298Z,13.83
2023-09-28T06:32:09.765Z,13.89
2023-09-28T06:34:36.273Z,14.00
2023-09-28T06:37:02.782Z,14.06
2023-09-28T06:39:30.726Z,14.14
2023-09-28T06:42:05.573Z,14.18
2023-09-28T06:44:41.078Z,14.23
2023-09-28T06:47:07.524Z,14.31
2023-09-28T06:49:34.011Z,14.42
2023-09-28T06:52:00.428Z,14.49
2023-09-28T06:54:26.848Z,14.58
2023-09-28T06:56:53.406Z,14.67
2023-09-28T06:59:20.210Z,14.78
2023-09-28T07:01:46.934Z,14.87
2023-09-28T07:04:14.072Z,14.98
2023-09-28T07:06:40.782Z,15.08
2023-09-28T07:09:07.495Z,15.25
2023-09-28T07:11:33.941Z,15.33
2023-09-28T07:14:00.356Z,15.45
2023-09-28T07:16:26.829Z,15.55
2023-09-28T07:18:53.607Z,15.64
2023-09-28T07:21:20.164Z,15.76
2023-09-28T07:23:46.671Z,15.86
2023-09-28T07:26:14.752Z,15.97
2023-09-28T07:28:41.240Z,16.05
2023-09-28T07:31:07.789Z,16.24
2023-09-28T07:33:34.403Z,16.40
2023-09-28T07:36:01.034Z,16.56
2023-09-28T07:38:27.498Z,16.58
2023-09-28T07:40:54.079Z,16.65
2023-09-28T07:43:20.830Z,16.78
2023-09-28T07:45:47.300Z,16.95
2023-09-28T07:48:13.753Z,17.11
2023-09-28T07:50:40.232Z,17.18
2023-09-28T07:53:06.794Z,17.29
2023-09-28T07:55:33.359Z,17.39
2023-09-28T07:58:08.647Z,17.56
2023-09-28T08:00:46.447Z,17.66
2023-09-28T08:03:13.652Z,17.75
2023-09-28T08:05:40.285Z,17.85
2023-09-28T08:08:15.018Z,17.94
2023-09-28T08:10:44.234Z,18.05
2023-09-28T08:13:13.586Z,18.21
2023-09-28T08:15:40.372Z,18.32
2023-09-28T08:18:07.035Z,18.41
2023-09-28T08:20:33.436Z,18.44
2023-09-28T08:23:00.083Z,18.52
2023-09-28T08:25:26.530Z,18.65
2023-09-28T08:27:53.007Z,18.77
2023-09-28T08:30:19.744Z,18.85
2023-09-28T08:32:46.417Z,18.96
2023-09-28T08:35:13.658Z,19.15
2023-09-28T08:37:40.977Z,19.28
2023-09-28T08:40:08.511Z,19.38
2023-09-28T08:42:39.464Z,19.54
2023-09-28T08:45:06.934Z,19.76
2023-09-28T08:47:36.121Z,19.90
2023-09-28T08:50:03.665Z,20.03
2023-09-28T08:52:30.240Z,20.20
2023-09-28T08:54:57.651Z,20.31
2023-09-28T08:57:25.001Z,20.44
2023-09-28T08:59:53.295Z,20.60
2023-09-28T09:02:19.923Z,20.84
2023-09-28T09:04:46.426Z,20.94
2023-09-28T09:07:13.113Z,21.10
2023-09-28T09:09:40.718Z,21.23
2023-09-28T09:12:10.548Z,21.31
2023-09-28T09:14:37.174Z,21.34
2023-09-28T09:17:09.688Z,21.45
2023-09-28T09:19:37.594Z,21.68
2023-09-28T09:22:04.540Z,21.80
2023-09-28T09:24:31.330Z,21.89
2023-09-28T09:26:57.932Z,22.10
2023-09-28T09:29:24.580Z,22.14
2023-09-28T09:31:52.184Z,22.22
2023-09-28T09:34:22.661Z,22.34
2023-09-28T09:36:59.624Z,22.45
2023-09-28T09:39:27.900Z,22.52
2023-09-28T09:41:55.600Z,22.59
2023-09-28T09:44:23.604Z,22.68
2023-09-28T09:46:52.086Z,22.87
2023-09-28T09:49:18.582Z,22.89
2023-09-28T09:51:47.123Z,22.93
2023-09-28T09:54:15.025Z,23.03
2023-09-28T09:56:48.891Z,23.09
2023-09-28T09:59:17.915Z,23.25
2023-09-28T10:01:45.994Z,23.39
2023-09-28T10:04:14.027Z,23.53
2023-09-28T10:06:44.901Z,23.57
2023-09-28T10:09:11.578Z,23.68
2023-09-28T10:11:38.884Z,23.79
2023-09-28T10:14:06.762Z,23.94
2023-09-28T10:16:34.951Z,23.96
2023-09-28T10:19:03.547Z,24.05
2023-09-28T10:21:37.095Z,24.12
2023-09-28T10:24:10.680Z,24.21
2023-09-28T10:26:37.519Z,24.20
2023-09-28T10:29:09.676Z,24.25
2023-09-28T10:31:56.115Z,24.22
2023-09-28T10:34:26.866Z,24.23
2023-09-28T10:37:09.293Z,24.34
2023-09-28T10:39:39.253Z,24.54
2023-09-28T10:42:21.355Z,24.66
2023-09-28T10:44:50.376Z,24.75
2023-09-28T10:47:19.379Z,24.85
2023-09-28T10:49:46.027Z,24.84
2023-09-28T10:52:12.493Z,24.94
2023-09-28T10:54:39.640Z,25.03
2023-09-28T10:57:06.865Z,25.14
2023-09-28T10:59:33.336Z,25.24
2023-09-28T11:02:01.657Z,25.24
2023-09-28T11:04:43.422Z,25.35
2023-09-28T11:07:14.982Z,25.52
2023-09-28T11:09:41.674Z,25.47
2023-09-28T11:12:09.843Z,25.66
2023-09-28T11:14:36.573Z,25.66
2023-09-28T11:17:03.769Z,25.64
2023-09-28T11:19:30.329Z,25.93
2023-09-28T11:21:57.077Z,25.83
2023-09-28T11:24:23.532Z,26.00
2023-09-28T11:26:50.105Z,26.24
2023-09-28T11:29:17.169Z,26.39
2023-09-28T11:31:52.929Z,26.50
2023-09-28T11:34:39.331Z,26.42
2023-09-28T11:37:11.064Z,26.71
2023-09-28T11:39:39.492Z,26.77
2023-09-28T11:42:07.227Z,26.96
2023-09-28T11:44:33.993Z,27.01
2023-09-28T11:47:00.612Z,27.15
2023-09-28T11:49:27.205Z,27.20
2023-09-28T11:51:54.986Z,27.25
2023-09-28T11:54:25.164Z,27.36
2023-09-28T11:56:52.830Z,27.43
2023-09-28T11:59:21.347Z,27.51
2023-09-28T12:01:48.681Z,27.59
2023-09-28T12:04:17.056Z,27.67
2023-09-28T12:06:43.528Z,27.47
2023-09-28T12:09:09.932Z,27.90
2023-09-28T12:11:38.007Z,27.90
2023-09-28T12:14:04.929Z,27.83
2023-09-28T12:16:31.434Z,27.83
2023-09-28T12:18:58.872Z,27.60
2023-09-28T12:21:25.384Z,27.46
2023-09-28T12:23:51.914Z,27.51
2023-09-28T12:26:18.455Z,27.64
2023-09-28T12:28:44.990Z,27.78
2023-09-28T12:31:11.534Z,27.79
2023-09-28T12:33:38.192Z,27.59
2023-09-28T12:36:06.485Z,27.02
2023-09-28T12:38:33.327Z,27.03
2023-09-28T12:40:59.898Z,27.06
2023-09-28T12:43:26.347Z,27.11
2023-09-28T12:45:52.984Z,27.37
2023-09-28T12:48:19.806Z,27.59
2023-09-28T12:50:46.742Z,27.61
2023-09-28T12:53:13.437Z,27.56
2023-09-28T12:55:40.036Z,27.48
2023-09-28T12:58:06.621Z,27.47
2023-09-28T13:00:33.123Z,27.38
2023-09-28T13:03:00.358Z,27.52
2023-09-28T13:05:27.065Z,27.35
2023-09-28T13:07:53.569Z,27.19
2023-09-28T13:10:20.107Z,27.08
2023-09-28T13:12:46.497Z,27.36
2023-09-28T13:15:12.980Z,27.36
2023-09-28T13:17:39.451Z,27.70
2023-09-28T13:20:07.063Z,27.64
2023-09-28T13:22:37.679Z,27.66
2023-09-28T13:25:05.412Z,27.57
2023-09-28T13:27:32.124Z,27.43
2023-09-28T13:29:59.081Z,27.29
2023-09-28T13:32:25.632Z,27.30
2023-09-28T13:34:52.119Z,27.50
2023-09-28T13:37:18.618Z,27.71
2023-09-28T13:39:45.294Z,27.84
2023-09-28T13:42:12.170Z,27.76
2023-09-28T13:44:38.743Z,27.71
2023-09-28T13:47:06.236Z,27.71
2023-09-28T13:49:32.931Z,27.74
2023-09-28T13:51:59.505Z,27.75
2023-09-28T13:54:27.136Z,27.75
2023-09-28T13:56:55.539Z,27.79
2023-09-28T13:59:22.459Z,27.77
2023-09-28T14:01:49.752Z,27.63
2023-09-28T14:04:16.624Z,27.61
2023-09-28T14:06:43.196Z,27.54
2023-09-28T14:09:09.908Z,27.49
2023-09-28T14:11:37.172Z,27.27
2023-09-28T14:14:03.737Z,27.11
2023-09-28T14:16:33.191Z,26.99
2023-09-28T14:19:02.108Z,27.01
2023-09-28T14:21:29.397Z,26.98
2023-09-28T14:23:56.055Z,26.95
2023-09-28T14:26:23.022Z,26.84
2023-09-28T14:28:49.499Z,26.80
2023-09-28T14:31:16.582Z,26.73
2023-09-28T14:33:43.312Z,26.70
2023-09-28T14:36:11.307Z,26.60
2023-09-28T14:38:38.750Z,26.52
2023-09-28T14:41:05.427Z,26.47
2023-09-28T14:43:31.992Z,26.36
2023-09-28T14:45:58.614Z,26.34
2023-09-28T14:48:25.207Z,26.29
2023-09-28T14:50:51.780Z,26.16
2023-09-28T14:53:18.358Z,26.11
2023-09-28T14:55:44.869Z,26.02
2023-09-28T14:58:11.339Z,25.91
2023-09-28T15:00:38.141Z,25.84
2023-09-28T15:03:05.414Z,25.89
2023-09-28T15:05:31.970Z,25.79
2023-09-28T15:07:58.370Z,25.78
2023-09-28T15:10:25.103Z,25.71
2023-09-28T15:12:51.803Z,25.63
2023-09-28T15:15:18.623Z,25.59
2023-09-28T15:17:45.504Z,25.53
2023-09-28T15:20:13.541Z,25.46
2023-09-28T15:22:40.137Z,25.37
2023-09-28T15:25:06.908Z,25.28
2023-09-28T15:27:33.320Z,25.18
2023-09-28T15:30:00.254Z,25.11
2023-09-28T15:32:27.044Z,25.06
2023-09-28T15:34:54.544Z,25.01
2023-09-28T15:37:21.032Z,24.90
2023-09-28T15:39:48.299Z,24.80
2023-09-28T15:42:16.085Z,24.76
2023-09-28T15:44:42.864Z,24.65
2023-09-28T15:47:09.389Z,24.60
2023-09-28T15:49:35.832Z,24.45
2023-09-28T15:52:02.320Z,24.44
2023-09-28T15:54:29.030Z,24.41
2023-09-28T15:56:55.338Z,24.29
2023-09-28T15:59:21.783Z,24.11
2023-09-28T16:01:48.325Z,23.99
2023-09-28T16:04:14.996Z,23.86
2023-09-28T16:06:41.475Z,23.63
2023-09-28T16:09:07.924Z,23.57
2023-09-28T16:11:34.385Z,23.38
2023-09-28T16:14:01.162Z,23.31
2023-09-28T16:16:28.025Z,23.10
2023-09-28T16:18:54.943Z,23.01
2023-09-28T16:21:21.604Z,22.89
2023-09-28T16:23:47.972Z,22.85
2023-09-28T16:26:14.552Z,22.71
2023-09-28T16:28:40.983Z,22.64
2023-09-28T16:31:09.755Z,22.53
2023-09-28T16:33:36.162Z,22.37
2023-09-28T16:36:03.136Z,22.30
2023-09-28T16:38:29.940Z,22.14
2023-09-28T16:40:56.402Z,21.97
2023-09-28T16:43:26.994Z,21.85
2023-09-28T16:45:53.608Z,21.73
2023-09-28T16:48:20.221Z,21.57
2023-09-28T16:50:47.498Z,21.51
2023-09-28T16:53:14.255Z,21.44
2023-09-28T16:55:40.813Z,21.29
2023-09-28T16:58:07.228Z,21.15
2023-09-28T17:00:33.696Z,21.05
2023-09-28T17:03:01.467Z,20.92
2023-09-28T17:05:28.041Z,20.80
2023-09-28T17:07:54.512Z,20.71
2023-09-28T17:10:20.900Z,20.70
2023-09-28T17:12:47.309Z,20.63
2023-09-28T17:15:13.916Z,20.58
2023-09-28T17:17:40.826Z,20.48
2023-09-28T17:20:12.770Z,20.37
2023-09-28T17:22:39.558Z,20.24
2023-09-28T17:25:06.635Z,20.16
2023-09-28T17:27:34.192Z,20.08
2023-09-28T17:30:00.602Z,19.99
2023-09-28T17:32:27.145Z,19.89
2023-09-28T17:34:53.589Z,19.85
2023-09-28T17:37:20.004Z,19.78
2023-09-28T17:39:46.436Z,19.69
2023-09-28T17:42:12.902Z,19.65
2023-09-28T17:44:39.443Z,19.61
2023-09-28T17:47:05.836Z,19.62
2023-09-28T17:49:32.244Z,19.51
2023-09-28T17:51:58.642Z,19.36
2023-09-28T17:54:25.086Z,19.26
2023-09-28T17:56:51.593Z,19.25
2023-09-28T17:59:18.000Z,19.25
2023-09-28T18:01:44.608Z,19.13
2023-09-28T18:04:11.126Z,19.08
2023-09-28T18:06:39.164Z,19.00
2023-09-28T18:09:05.630Z,18.95
2023-09-28T18:11:32.059Z,18.90
2023-09-28T18:13:58.814Z,18.80
2023-09-28T18:16:25.264Z,18.75
2023-09-28T18:18:54.214Z,18.64
2023-09-28T18:21:22.957Z,18.59
2023-09-28T18:23:49.426Z,18.57
2023-09-28T18:26:15.838Z,18.49
2023-09-28T18:28:42.309Z,18.43
2023-09-28T18:31:08.849Z,18.40
2023-09-28T18:33:35.724Z,18.33
2023-09-28T18:36:02.217Z,18.33
2023-09-28T18:38:28.959Z,18.29
2023-09-28T18:40:55.271Z,18.23
2023-09-28T18:43:21.648Z,18.14
2023-09-28T18:45:52.765Z,18.04
2023-09-28T18:48:20.605Z,17.99
2023-09-28T18:50:47.125Z,18.00
2023-09-28T18:53:13.778Z,17.96
2023-09-28T18:55:40.197Z,17.97
2023-09-28T18:58:06.683Z,17.97
2023-09-28T19:00:33.354Z,17.95
2023-09-28T19:03:00.052Z,17.92
2023-09-28T19:05:26.533Z,17.88
2023-09-28T19:07:53.100Z,17.87
2023-09-28T19:10:20.721Z,17.82
2023-09-28T19:12:47.186Z,17.81
2023-09-28T19:15:13.972Z,17.75
2023-09-28T19:17:40.409Z,17.76
2023-09-28T19:20:07.678Z,17.70
2023-09-28T19:22:34.123Z,17.63
2023-09-28T19:25:00.727Z,17.60
2023-09-28T19:27:37.922Z,17.53
2023-09-28T19:30:08.091Z,17.49
2023-09-28T19:32:34.562Z,17.48
2023-09-28T19:35:01.245Z,17.49
2023-09-28T19:37:30.273Z,17.44
2023-09-28T19:39:58.000Z,17.29
2023-09-28T19:42:24.424Z,17.28
2023-09-28T19:44:50.929Z,17.27
2023-09-28T19:47:17.374Z,17.25
2023-09-28T19:49:43.930Z,17.11
2023-09-28T19:52:10.413Z,17.09
2023-09-28T19:54:36.808Z,17.05
2023-09-28T19:57:03.765Z,17.00
2023-09-28T19:59:30.389Z,16.92
2023-09-28T20:01:56.829Z,16.91
2023-09-28T20:04:23.319Z,16.93
2023-09-28T20:06:49.713Z,16.86
2023-09-28T20:09:16.154Z,16.81
2023-09-28T20:11:42.745Z,16.77
2023-09-28T20:14:09.155Z,16.73
2023-09-28T20:16:35.628Z,16.68
2023-09-28T20:19:02.186Z,16.68
2023-09-28T20:21:28.666Z,16.69
2023-09-28T20:23:55.274Z,16.63
2023-09-28T20:26:21.839Z,16.56
2023-09-28T20:28:48.338Z,16.54
2023-09-28T20:31:14.800Z,16.58
2023-09-28T20:33:43.081Z,16.53
2023-09-28T20:36:09.822Z,16.43
2023-09-28T20:38:38.192Z,16.38
2023-09-28T20:41:04.854Z,16.32
2023-09-28T20:43:31.261Z,16.31
2023-09-28T20:45:58.807Z,16.32
2023-09-28T20:48:25.698Z,16.28
2023-09-28T20:50:52.713Z,16.21
2023-09-28T20:53:19.088Z,16.17
2023-09-28T20:55:45.577Z,16.12
2023-09-28T20:58:12.034Z,16.11
2023-09-28T21:00:38.892Z,16.04
2023-09-28T21:03:05.926Z,16.08
2023-09-28T21:05:32.594Z,16.02
2023-09-28T21:07:59.746Z,15.99
2023-09-28T21:10:26.654Z,16.03
2023-09-28T21:12:53.224Z,16.01
2023-09-28T21:15:20.401Z,15.98
2023-09-28T21:17:47.144Z,16.00
2023-09-28T21:20:13.514Z,15.96
2023-09-28T21:22:40.701Z,15.95
2023-09-28T21:25:07.802Z,15.94
2023-09-28T21:27:34.278Z,15.87
2023-09-28T21:30:00.861Z,15.85
2023-09-28T21:32:27.656Z,15.77
2023-09-28T21:34:54.210Z,15.73
2023-09-28T21:37:20.868Z,15.71
2023-09-28T21:39:47.609Z,15.64
2023-09-28T21:42:14.340Z,15.59
2023-09-28T21:44:41.041Z,15.56
2023-09-28T21:47:07.553Z,15.54
2023-09-28T21:49:34.007Z,15.51
2023-09-28T21:52:00.396Z,15.48
2023-09-28T21:54:28.103Z,15.41
2023-09-28T21:56:54.911Z,15.41
2023-09-28T21:59:21.378Z,15.45
2023-09-28T22:01:47.977Z,15.41
2023-09-28T22:04:14.730Z,15.33
2023-09-28T22:06:41.256Z,15.28
2023-09-28T22:09:07.752Z,15.24
2023-09-28T22:11:34.270Z,15.24
2023-09-28T22:14:00.824Z,15.24
2023-09-28T22:16:30.329Z,15.23
2023-09-28T22:18:57.046Z,15.21
2023-09-28T22:21:23.670Z,15.18
2023-09-28T22:23:50.162Z,15.10
2023-09-28T22:26:16.713Z,15.08
2023-09-28T22:28:43.297Z,15.02
2023-09-28T22:31:09.843Z,15.02
2023-09-28T22:33:36.454Z,15.02
2023-09-28T22:36:03.386Z,15.02
2023-09-28T22:38:29.953Z,15.01
2023-09-28T22:40:56.776Z,15.06
2023-09-28T22:43:23.241Z,15.11
2023-09-28T22:45:49.959Z,15.07
2023-09-28T22:48:16.554Z,15.07
2023-09-28T22:50:43.055Z,15.04
2023-09-28T22:53:09.756Z,14.97
2023-09-28T22:55:37.106Z,14.92
2023-09-28T22:58:03.658Z,14.83
2023-09-28T23:00:30.398Z,14.77
2023-09-28T23:02:56.962Z,14.74
2023-09-28T23:05:23.807Z,14.72
2023-09-28T23:07:50.485Z,14.69
2023-09-28T23:10:17.319Z,14.68
2023-09-28T23:12:44.473Z,14.67
2023-09-28T23:15:12.350Z,14.64
2023-09-28T23:17:39.213Z,14.67
2023-09-28T23:20:06.807Z,14.70
2023-09-28T23:22:33.296Z,14.68
2023-09-28T23:24:59.853Z,14.65
2023-09-28T23:27:26.344Z,14.60
2023-09-28T23:29:52.851Z,14.59
2023-09-28T23:32:19.382Z,14.59
2023-09-28T23:34:46.257Z,14.60
2023-09-28T23:37:12.763Z,14.59
2023-09-28T23:39:39.262Z,14.61
2023-09-28T23:42:05.752Z,14.62
2023-09-28T23:44:32.257Z,14.62
2023-09-28T23:46:58.741Z,14.65
2023-09-28T23:49:26.384Z,14.64
2023-09-28T23:51:52.820Z,14.58
2023-09-28T23:54:19.323Z,14.58
2023-09-28T23:56:45.864Z,14.58
2023-09-28T23:59:12.412Z,14.52
